createdAt,value
2018-06-20T00:00:45.578Z,18.60
2018-06-20T00:01:45.599Z,18.20
2018-06-20T00:02:45.626Z,19.00
2018-06-20T00:03:45.651Z,18.70
2018-06-20T00:04:45.673Z,18.70
2018-06-20T00:05:45.697Z,19.10
2018-06-20T00:06:45.724Z,18.40
2018-06-20T00:07:45.745Z,17.00
2018-06-20T00:08:45.773Z,17.10
2018-06-20T00:09:45.797Z,17.50
2018-06-20T00:10:45.818Z,17.70
2018-06-20T00:11:45.849Z,19.20
2018-06-20T00:12:45.867Z,17.70
2018-06-20T00:13:45.891Z,20.80
2018-06-20T00:14:45.915Z,21.60
2018-06-20T00:15:45.943Z,22.60
2018-06-20T00:16:45.966Z,25.40
2018-06-20T00:17:45.991Z,20.90
2018-06-20T00:18:46.016Z,21.20
2018-06-20T00:19:46.039Z,21.20
2018-06-20T00:20:46.063Z,24.50
2018-06-20T00:21:46.085Z,22.30
2018-06-20T00:22:46.109Z,23.20
2018-06-20T00:23:46.134Z,30.10
2018-06-20T00:24:46.158Z,22.30
2018-06-20T00:25:46.183Z,23.50
2018-06-20T00:26:46.207Z,18.90
2018-06-20T00:27:46.231Z,19.40
2018-06-20T00:28:46.257Z,30.10
2018-06-20T00:29:46.278Z,20.50
2018-06-20T00:30:46.304Z,19.10
2018-06-20T00:31:46.330Z,18.20
2018-06-20T00:32:46.354Z,21.30
2018-06-20T00:33:46.379Z,18.20
2018-06-20T00:34:46.404Z,19.30
2018-06-20T00:35:46.424Z,18.10
2018-06-20T00:36:46.452Z,18.30
2018-06-20T00:37:46.474Z,18.70
2018-06-20T00:38:46.499Z,19.60
2018-06-20T00:39:46.521Z,18.40
2018-06-20T00:40:46.546Z,18.00
2018-06-20T00:41:46.573Z,19.80
2018-06-20T00:42:46.597Z,19.50
2018-06-20T00:43:46.621Z,18.50
2018-06-20T00:44:46.646Z,19.70
2018-06-20T00:45:46.668Z,19.80
2018-06-20T00:46:46.690Z,19.70
2018-06-20T00:47:46.715Z,19.70
2018-06-20T00:48:46.742Z,18.30
2018-06-20T00:49:46.769Z,19.90
2018-06-20T00:50:46.792Z,20.50
2018-06-20T00:51:46.814Z,19.40
2018-06-20T00:52:46.836Z,21.30
2018-06-20T00:53:46.863Z,19.40
2018-06-20T00:54:46.884Z,18.70
2018-06-20T00:55:46.910Z,19.90
2018-06-20T00:56:46.938Z,20.10
2018-06-20T00:57:46.959Z,19.70
2018-06-20T00:58:46.980Z,19.90
2018-06-20T00:59:47.008Z,19.00
2018-06-20T01:00:47.029Z,19.90
2018-06-20T01:01:47.055Z,19.40
2018-06-20T01:02:47.081Z,19.30
2018-06-20T01:03:47.105Z,18.90
2018-06-20T01:04:47.128Z,19.00
2018-06-20T01:05:47.150Z,19.70
2018-06-20T01:06:47.176Z,21.20
2018-06-20T01:07:47.202Z,19.90
2018-06-20T01:08:47.224Z,20.60
2018-06-20T01:09:47.247Z,23.70
2018-06-20T01:10:47.283Z,21.00
2018-06-20T01:11:47.434Z,22.20
2018-06-20T01:12:47.322Z,20.50
2018-06-20T01:13:47.346Z,21.30
2018-06-20T01:14:47.372Z,22.10
2018-06-20T01:15:47.391Z,21.10
2018-06-20T01:16:47.420Z,21.70
2018-06-20T01:17:47.443Z,21.40
2018-06-20T01:18:47.464Z,22.40
2018-06-20T01:19:47.491Z,22.60
2018-06-20T01:20:47.513Z,22.40
2018-06-20T01:21:47.537Z,23.20
2018-06-20T01:22:47.563Z,25.50
2018-06-20T01:23:47.590Z,23.60
2018-06-20T01:24:47.610Z,22.70
2018-06-20T01:25:47.633Z,23.90
2018-06-20T01:26:47.660Z,22.40
2018-06-20T01:27:47.685Z,22.30
2018-06-20T01:28:47.707Z,23.10
2018-06-20T01:29:47.731Z,23.00
2018-06-20T01:30:47.755Z,27.90
2018-06-20T01:31:47.779Z,21.20
2018-06-20T01:32:47.804Z,22.40
2018-06-20T01:33:47.831Z,23.70
2018-06-20T01:34:47.855Z,22.80
2018-06-20T01:35:47.876Z,27.10
2018-06-20T01:36:47.904Z,26.20
2018-06-20T01:37:47.926Z,27.20
2018-06-20T01:38:47.950Z,27.00
2018-06-20T01:39:47.978Z,26.70
2018-06-20T01:40:48.000Z,26.20
2018-06-20T01:41:48.021Z,28.20
2018-06-20T01:42:48.045Z,27.80
2018-06-20T01:43:48.072Z,29.40
2018-06-20T01:44:48.100Z,27.90
2018-06-20T01:45:48.120Z,26.20
2018-06-20T01:46:48.141Z,28.30
2018-06-20T01:47:48.166Z,30.50
2018-06-20T01:48:48.194Z,27.70
2018-06-20T01:49:48.214Z,28.60
2018-06-20T01:50:48.237Z,28.60
2018-06-20T01:51:48.262Z,28.80
2018-06-20T01:52:48.289Z,30.00
2018-06-20T01:53:48.309Z,30.30
2018-06-20T01:54:48.334Z,29.60
2018-06-20T01:55:48.359Z,28.50
2018-06-20T01:56:48.382Z,31.40
2018-06-20T01:57:48.407Z,29.90
2018-06-20T01:58:48.432Z,30.40
2018-06-20T01:59:48.454Z,30.40
2018-06-20T02:00:48.479Z,30.20
2018-06-20T02:01:48.504Z,29.30
2018-06-20T02:02:48.526Z,30.70
2018-06-20T02:03:48.550Z,31.00
2018-06-20T02:04:48.574Z,29.50
2018-06-20T02:05:48.597Z,31.70
2018-06-20T02:06:48.624Z,31.40
2018-06-20T02:07:48.649Z,31.20
2018-06-20T02:08:48.669Z,30.50
2018-06-20T02:09:48.696Z,31.90
2018-06-20T02:10:48.719Z,30.20
2018-06-20T02:11:48.742Z,30.40
2018-06-20T02:12:48.765Z,31.10
2018-06-20T02:13:48.791Z,31.90
2018-06-20T02:14:48.812Z,30.60
2018-06-20T02:15:48.839Z,30.20
2018-06-20T02:16:48.861Z,29.80
2018-06-20T02:17:48.888Z,30.70
2018-06-20T02:18:48.906Z,29.80
2018-06-20T02:19:48.931Z,32.70
2018-06-20T02:20:48.958Z,31.40
2018-06-20T02:21:48.979Z,32.50
2018-06-20T02:22:49.006Z,30.90
2018-06-20T02:23:49.034Z,30.70
2018-06-20T02:24:49.052Z,31.60
2018-06-20T02:25:49.074Z,30.00
2018-06-20T02:26:49.097Z,33.40
2018-06-20T02:27:49.125Z,30.80
2018-06-20T02:28:49.148Z,30.90
2018-06-20T02:29:49.173Z,32.60
2018-06-20T02:30:49.195Z,34.00
2018-06-20T02:31:49.222Z,32.90
2018-06-20T02:32:49.243Z,30.40
2018-06-20T02:33:49.266Z,31.50
2018-06-20T02:34:49.292Z,30.50
2018-06-20T02:35:49.313Z,37.50
2018-06-20T02:36:49.405Z,31.30
2018-06-20T02:37:49.359Z,30.70
2018-06-20T02:38:49.387Z,33.00
2018-06-20T02:39:49.409Z,30.30
2018-06-20T02:40:49.433Z,34.70
2018-06-20T02:41:49.458Z,35.00
2018-06-20T02:42:49.479Z,32.60
2018-06-20T02:43:49.504Z,31.00
2018-06-20T02:44:49.531Z,33.00
2018-06-20T02:45:49.550Z,31.50
2018-06-20T02:46:49.574Z,33.40
2018-06-20T02:47:49.600Z,31.50
2018-06-20T02:48:49.628Z,32.30
2018-06-20T02:49:49.648Z,33.50
2018-06-20T02:50:49.671Z,33.10
2018-06-20T02:51:49.695Z,34.30
2018-06-20T02:52:49.744Z,35.70
2018-06-20T02:53:49.744Z,34.60
2018-06-20T02:54:49.765Z,29.00
2018-06-20T02:55:49.792Z,31.20
2018-06-20T02:56:49.815Z,29.20
2018-06-20T02:57:49.840Z,30.60
2018-06-20T02:58:49.866Z,26.30
2018-06-20T02:59:49.885Z,31.00
2018-06-20T03:00:49.908Z,31.00
2018-06-20T03:01:49.936Z,28.00
2018-06-20T03:02:49.956Z,28.50
2018-06-20T03:03:49.980Z,26.10
2018-06-20T03:04:50.008Z,29.80
2018-06-20T03:05:50.028Z,27.70
2018-06-20T03:06:50.053Z,28.10
2018-06-20T03:07:50.080Z,33.10
2018-06-20T03:08:50.105Z,28.80
2018-06-20T03:09:50.128Z,28.50
2018-06-20T03:10:50.152Z,27.10
2018-06-20T03:11:50.178Z,28.10
2018-06-20T03:12:50.199Z,28.20
2018-06-20T03:13:50.222Z,27.70
2018-06-20T03:14:50.246Z,29.10
2018-06-20T03:15:50.272Z,30.50
2018-06-20T03:16:50.293Z,25.90
2018-06-20T03:17:50.318Z,30.40
2018-06-20T03:18:50.344Z,27.10
2018-06-20T03:19:50.366Z,30.50
2018-06-20T03:20:50.389Z,29.70
2018-06-20T03:21:50.413Z,32.00
2018-06-20T03:22:50.438Z,26.80
2018-06-20T03:23:50.464Z,29.40
2018-06-20T03:24:50.488Z,28.20
2018-06-20T03:25:50.508Z,29.40
2018-06-20T03:26:50.535Z,30.40
2018-06-20T03:27:50.558Z,27.80
2018-06-20T03:28:50.584Z,28.00
2018-06-20T03:29:50.608Z,27.00
2018-06-20T03:30:50.631Z,33.90
2018-06-20T03:31:50.662Z,31.90
2018-06-20T03:32:50.681Z,29.10
2018-06-20T03:33:50.704Z,31.60
2018-06-20T03:34:50.725Z,32.20
2018-06-20T03:35:50.749Z,28.10
2018-06-20T03:36:50.776Z,34.60
2018-06-20T03:37:50.799Z,33.90
2018-06-20T03:38:50.821Z,31.60
2018-06-20T03:39:50.845Z,33.50
2018-06-20T03:40:50.871Z,34.20
2018-06-20T03:41:50.893Z,36.50
2018-06-20T03:42:50.920Z,39.50
2018-06-20T03:43:50.941Z,37.50
2018-06-20T03:44:50.968Z,38.10
2018-06-20T03:45:50.992Z,40.00
2018-06-20T03:46:51.013Z,41.70
2018-06-20T03:47:51.037Z,41.80
2018-06-20T03:48:51.065Z,41.80
2018-06-20T03:49:51.087Z,37.70
2018-06-20T03:50:51.110Z,32.00
2018-06-20T03:51:51.137Z,34.40
2018-06-20T03:52:51.161Z,31.80
2018-06-20T03:53:51.184Z,38.60
2018-06-20T03:54:51.206Z,35.80
2018-06-20T03:55:51.233Z,28.20
2018-06-20T03:56:51.257Z,29.80
2018-06-20T03:57:51.279Z,32.80
2018-06-20T03:58:51.303Z,31.00
2018-06-20T03:59:51.331Z,30.00
2018-06-20T04:00:51.352Z,33.10
2018-06-20T04:01:51.376Z,30.70
2018-06-20T04:02:51.403Z,28.40
2018-06-20T04:03:51.424Z,30.80
2018-06-20T04:04:51.448Z,31.70
2018-06-20T04:05:51.474Z,33.60
2018-06-20T04:06:51.500Z,31.20
2018-06-20T04:07:51.521Z,33.10
2018-06-20T04:08:51.548Z,32.80
2018-06-20T04:09:51.571Z,32.20
2018-06-20T04:10:51.597Z,33.70
2018-06-20T04:11:51.620Z,33.50
2018-06-20T04:12:51.644Z,34.70
2018-06-20T04:13:51.666Z,32.00
2018-06-20T04:14:51.691Z,31.50
2018-06-20T04:15:51.731Z,30.70
2018-06-20T04:16:52.041Z,33.40
2018-06-20T04:17:51.765Z,34.20
2018-06-20T04:18:51.788Z,35.00
2018-06-20T04:19:51.812Z,32.50
2018-06-20T04:20:51.836Z,34.80
2018-06-20T04:21:51.860Z,34.90
2018-06-20T04:22:51.890Z,30.20
2018-06-20T04:23:51.908Z,35.20
2018-06-20T04:24:51.933Z,34.40
2018-06-20T04:25:51.959Z,34.20
2018-06-20T04:26:51.980Z,32.90
2018-06-20T04:27:52.005Z,34.60
2018-06-20T04:28:52.031Z,35.30
2018-06-20T04:29:52.056Z,35.20
2018-06-20T04:30:52.080Z,34.90
2018-06-20T04:31:52.104Z,33.20
2018-06-20T04:32:52.125Z,36.40
2018-06-20T04:33:52.150Z,35.80
2018-06-20T04:34:52.180Z,34.40
2018-06-20T04:35:52.197Z,36.20
2018-06-20T04:36:52.224Z,33.30
2018-06-20T04:37:52.245Z,34.90
2018-06-20T04:38:52.272Z,36.10
2018-06-20T04:39:52.298Z,34.80
2018-06-20T04:40:52.322Z,34.80
2018-06-20T04:41:52.342Z,34.40
2018-06-20T04:42:52.365Z,38.90
2018-06-20T04:43:52.391Z,37.80
2018-06-20T04:44:52.416Z,32.90
2018-06-20T04:45:52.440Z,37.00
2018-06-20T04:46:52.467Z,35.90
2018-06-20T04:47:52.498Z,35.30
2018-06-20T04:48:52.520Z,41.10
2018-06-20T04:49:52.540Z,41.40
2018-06-20T04:50:52.561Z,40.30
2018-06-20T04:51:52.586Z,41.50
2018-06-20T04:52:52.613Z,37.80
2018-06-20T04:53:52.637Z,45.10
2018-06-20T04:54:52.661Z,40.80
2018-06-20T04:55:52.684Z,43.70
2018-06-20T04:56:52.711Z,42.40
2018-06-20T04:57:52.735Z,39.40
2018-06-20T04:58:52.756Z,40.30
2018-06-20T04:59:52.783Z,41.30
2018-06-20T05:00:52.807Z,38.30
2018-06-20T05:01:52.829Z,42.60
2018-06-20T05:02:52.855Z,42.30
2018-06-20T05:03:52.885Z,36.70
2018-06-20T05:04:52.907Z,36.10
2018-06-20T05:05:52.930Z,35.70
2018-06-20T05:06:52.956Z,40.10
2018-06-20T05:07:52.981Z,39.90
2018-06-20T05:08:53.002Z,38.80
2018-06-20T05:09:53.027Z,36.70
2018-06-20T05:10:53.053Z,36.20
2018-06-20T05:11:53.078Z,39.60
2018-06-20T05:12:53.105Z,33.70
2018-06-20T05:13:53.126Z,36.20
2018-06-20T05:14:53.154Z,36.80
2018-06-20T05:15:53.178Z,34.10
2018-06-20T05:16:53.203Z,34.30
2018-06-20T05:17:53.224Z,32.80
2018-06-20T05:18:53.253Z,33.30
2018-06-20T05:19:53.282Z,33.30
2018-06-20T05:20:53.300Z,33.90
2018-06-20T05:21:53.377Z,34.50
2018-06-20T05:22:53.350Z,34.60
2018-06-20T05:23:53.380Z,36.60
2018-06-20T05:24:53.403Z,38.90
2018-06-20T05:25:53.425Z,40.40
2018-06-20T05:26:53.449Z,32.70
2018-06-20T05:27:53.477Z,33.30
2018-06-20T05:28:53.504Z,33.00
2018-06-20T05:29:53.525Z,33.70
2018-06-20T05:30:53.550Z,32.60
2018-06-20T05:31:53.579Z,34.00
2018-06-20T05:32:53.607Z,34.00
2018-06-20T05:33:53.625Z,37.30
2018-06-20T05:34:53.653Z,33.20
2018-06-20T05:35:53.678Z,31.60
2018-06-20T05:36:53.701Z,35.20
2018-06-20T05:37:53.730Z,32.90
2018-06-20T05:38:53.755Z,34.20
2018-06-20T05:39:53.781Z,38.40
2018-06-20T05:40:53.806Z,34.00
2018-06-20T05:41:53.830Z,31.70
2018-06-20T05:42:53.853Z,31.60
2018-06-20T05:43:53.880Z,31.80
2018-06-20T05:44:53.904Z,34.00
2018-06-20T05:45:53.932Z,30.60
2018-06-20T05:46:53.959Z,34.80
2018-06-20T05:47:53.980Z,33.40
2018-06-20T05:48:54.009Z,31.90
2018-06-20T05:49:54.031Z,33.10
2018-06-20T05:50:54.058Z,34.10
2018-06-20T05:51:54.085Z,35.00
2018-06-20T05:52:54.108Z,30.90
2018-06-20T05:53:54.164Z,33.00
2018-06-20T05:54:54.159Z,32.80
2018-06-20T05:55:54.184Z,31.50
2018-06-20T05:56:54.211Z,32.40
2018-06-20T05:57:54.235Z,31.90
2018-06-20T05:58:54.262Z,31.70
2018-06-20T05:59:54.290Z,33.20
2018-06-20T06:00:54.315Z,33.70
2018-06-20T06:01:54.340Z,31.60
2018-06-20T06:02:54.365Z,30.70
2018-06-20T06:03:54.391Z,30.80
2018-06-20T06:04:54.417Z,27.80
2018-06-20T06:05:54.444Z,26.70
2018-06-20T06:06:54.467Z,31.30
2018-06-20T06:07:54.496Z,29.30
2018-06-20T06:08:54.520Z,27.40
2018-06-20T06:09:54.549Z,32.50
2018-06-20T06:10:54.577Z,27.60
2018-06-20T06:11:54.650Z,28.70
2018-06-20T06:12:54.626Z,24.40
2018-06-20T06:13:54.651Z,25.50
2018-06-20T06:14:54.678Z,24.90
2018-06-20T06:15:54.705Z,25.10
2018-06-20T06:16:54.760Z,25.90
2018-06-20T06:17:54.760Z,25.40
2018-06-20T06:18:54.786Z,29.40
2018-06-20T06:19:54.814Z,25.70
2018-06-20T06:20:54.840Z,26.00
2018-06-20T06:21:54.869Z,28.40
2018-06-20T06:22:54.893Z,26.70
2018-06-20T06:23:54.920Z,27.10
2018-06-20T06:24:54.947Z,24.70
2018-06-20T06:25:54.969Z,24.50
2018-06-20T06:26:54.996Z,25.00
2018-06-20T06:27:55.025Z,25.60
2018-06-20T06:28:55.049Z,23.90
2018-06-20T06:29:55.076Z,23.90
2018-06-20T06:30:55.103Z,25.00
2018-06-20T06:31:55.127Z,23.10
2018-06-20T06:32:55.154Z,23.20
2018-06-20T06:33:55.181Z,23.60
2018-06-20T06:34:55.223Z,22.80
2018-06-20T06:35:55.232Z,22.30
2018-06-20T06:36:55.260Z,24.70
2018-06-20T06:37:55.285Z,21.70
2018-06-20T06:38:55.312Z,24.20
2018-06-20T06:39:55.338Z,23.60
2018-06-20T06:40:55.362Z,23.70
2018-06-20T06:41:55.391Z,21.90
2018-06-20T06:42:55.413Z,22.30
2018-06-20T06:43:55.449Z,23.70
2018-06-20T06:44:55.466Z,23.80
2018-06-20T06:45:55.495Z,20.90
2018-06-20T06:46:55.517Z,22.60
2018-06-20T06:47:55.546Z,22.30
2018-06-20T06:48:55.569Z,23.30
2018-06-20T06:49:55.704Z,23.20
2018-06-20T06:50:55.622Z,21.10
2018-06-20T06:51:55.648Z,23.60
2018-06-20T06:52:55.783Z,23.40
2018-06-20T06:53:55.700Z,22.80
2018-06-20T06:54:55.728Z,22.50
2018-06-20T06:55:55.761Z,22.30
2018-06-20T06:56:55.778Z,22.80
2018-06-20T06:57:55.803Z,22.30
2018-06-20T06:58:55.829Z,23.20
2018-06-20T06:59:55.855Z,22.60
2018-06-20T07:00:55.883Z,22.20
2018-06-20T07:01:55.910Z,23.50
2018-06-20T07:02:55.932Z,21.60
2018-06-20T07:03:55.960Z,21.80
2018-06-20T07:04:55.988Z,22.10
2018-06-20T07:05:56.012Z,22.00
2018-06-20T07:06:56.039Z,22.20
2018-06-20T07:07:56.061Z,21.20
2018-06-20T07:08:56.088Z,24.10
2018-06-20T07:09:56.114Z,21.20
2018-06-20T07:10:56.138Z,19.90
2018-06-20T07:11:56.167Z,22.50
2018-06-20T07:12:56.189Z,21.80
2018-06-20T07:13:56.218Z,20.40
2018-06-20T07:14:56.241Z,23.70
2018-06-20T07:15:56.269Z,20.40
2018-06-20T07:16:56.328Z,22.20
2018-06-20T07:17:56.318Z,24.20
2018-06-20T07:18:56.347Z,19.80
2018-06-20T07:19:56.368Z,20.70
2018-06-20T07:20:56.396Z,21.40
2018-06-20T07:21:56.420Z,21.00
2018-06-20T07:22:56.450Z,20.90
2018-06-20T07:23:56.580Z,20.60
2018-06-20T07:24:56.499Z,22.00
2018-06-20T07:25:56.525Z,20.30
2018-06-20T07:26:56.551Z,19.20
2018-06-20T07:27:56.574Z,20.70
2018-06-20T07:28:56.601Z,20.50
2018-06-20T07:29:56.751Z,19.60
2018-06-20T07:30:56.655Z,18.90
2018-06-20T07:31:56.681Z,19.40
2018-06-20T07:32:56.704Z,18.40
2018-06-20T07:33:56.733Z,20.20
2018-06-20T07:34:56.756Z,20.40
2018-06-20T07:35:56.894Z,19.20
2018-06-20T07:36:56.810Z,19.30
2018-06-20T07:37:56.834Z,18.90
2018-06-20T07:38:56.864Z,18.80
2018-06-20T07:39:56.896Z,20.50
2018-06-20T07:40:56.914Z,19.60
2018-06-20T07:41:56.941Z,19.70
2018-06-20T07:42:56.966Z,19.60
2018-06-20T07:43:56.996Z,19.00
2018-06-20T07:44:57.049Z,18.10
2018-06-20T07:45:57.045Z,22.70
2018-06-20T07:46:57.073Z,18.60
2018-06-20T07:47:57.114Z,19.10
2018-06-20T07:48:57.126Z,21.00
2018-06-20T07:49:57.151Z,19.50
2018-06-20T07:50:57.179Z,20.40
2018-06-20T07:51:57.207Z,22.00
2018-06-20T07:52:57.237Z,21.30
2018-06-20T07:53:57.259Z,21.30
2018-06-20T07:54:57.290Z,21.10
2018-06-20T07:55:57.316Z,21.70
2018-06-20T07:56:57.341Z,20.50
2018-06-20T07:57:57.767Z,19.80
2018-06-20T07:58:57.645Z,21.20
2018-06-20T07:59:57.420Z,20.20
2018-06-20T08:00:57.483Z,21.10
2018-06-20T08:01:57.475Z,22.20
2018-06-20T08:02:57.502Z,22.20
2018-06-20T08:03:57.681Z,21.60
2018-06-20T08:04:57.558Z,20.70
2018-06-20T08:05:57.583Z,21.60
2018-06-20T08:06:57.613Z,22.10
2018-06-20T08:07:57.643Z,22.60
2018-06-20T08:08:57.669Z,22.80
2018-06-20T08:09:57.693Z,24.80
2018-06-20T08:10:57.726Z,23.40
2018-06-20T08:11:57.748Z,23.60
2018-06-20T08:12:57.780Z,24.20
2018-06-20T08:13:57.804Z,23.90
2018-06-20T08:14:57.829Z,24.00
2018-06-20T08:15:57.860Z,24.70
2018-06-20T08:16:57.886Z,23.60
2018-06-20T08:17:57.913Z,23.80
2018-06-20T08:18:58.043Z,24.40
2018-06-20T08:19:57.969Z,23.90
2018-06-20T08:20:57.995Z,25.40
2018-06-20T08:21:58.022Z,24.80
2018-06-20T08:22:58.049Z,25.80
2018-06-20T08:23:58.073Z,25.00
2018-06-20T08:24:58.101Z,23.00
2018-06-20T08:25:58.126Z,25.40
2018-06-20T08:26:58.155Z,25.10
2018-06-20T08:27:58.183Z,25.10
2018-06-20T08:28:58.206Z,25.60
2018-06-20T08:29:58.233Z,24.60
2018-06-20T08:30:58.261Z,23.10
2018-06-20T08:31:58.287Z,22.60
2018-06-20T08:32:58.313Z,22.50
2018-06-20T08:33:58.345Z,24.70
2018-06-20T08:34:58.367Z,23.30
2018-06-20T08:35:58.395Z,22.40
2018-06-20T08:36:58.422Z,22.00
2018-06-20T08:37:58.450Z,24.10
2018-06-20T08:38:58.477Z,22.10
2018-06-20T08:39:58.509Z,21.60
2018-06-20T08:40:58.530Z,20.80
2018-06-20T08:41:58.559Z,21.10
2018-06-20T08:42:58.586Z,23.10
2018-06-20T08:43:58.614Z,23.00
2018-06-20T08:44:58.641Z,23.70
2018-06-20T08:45:58.672Z,22.20
2018-06-20T08:46:58.701Z,22.40
2018-06-20T08:47:58.723Z,20.90
2018-06-20T08:48:58.751Z,19.30
2018-06-20T08:49:58.777Z,20.00
2018-06-20T08:50:58.803Z,18.40
2018-06-20T08:51:58.828Z,19.20
2018-06-20T08:52:58.919Z,18.90
2018-06-20T08:53:58.886Z,17.60
2018-06-20T08:54:58.911Z,17.80
2018-06-20T08:55:58.939Z,18.50
2018-06-20T08:56:58.969Z,17.60
2018-06-20T08:57:58.994Z,17.20
2018-06-20T08:58:59.021Z,18.60
2018-06-20T08:59:59.051Z,18.00
2018-06-20T09:00:59.077Z,16.30
2018-06-20T09:01:59.102Z,16.10
2018-06-20T09:02:59.133Z,16.50
2018-06-20T09:03:59.160Z,16.90
2018-06-20T09:04:59.191Z,17.50
2018-06-20T09:05:59.216Z,17.00
2018-06-20T09:06:59.241Z,16.90
2018-06-20T09:07:59.269Z,17.80
2018-06-20T09:08:59.299Z,15.90
2018-06-20T09:09:59.323Z,15.50
2018-06-20T09:10:59.350Z,16.90
2018-06-20T09:11:59.379Z,16.80
2018-06-20T09:12:59.407Z,16.40
2018-06-20T09:13:59.433Z,16.10
2018-06-20T09:14:59.464Z,16.70
2018-06-20T09:15:59.490Z,17.70
2018-06-20T09:16:59.517Z,17.20
2018-06-20T09:17:59.545Z,16.70
2018-06-20T09:18:59.569Z,16.40
2018-06-20T09:19:59.601Z,15.20
2018-06-20T09:20:59.623Z,15.70
2018-06-20T09:21:59.685Z,16.50
2018-06-20T09:22:59.676Z,16.70
2018-06-20T09:23:59.707Z,15.70
2018-06-20T09:24:59.741Z,15.30
2018-06-20T09:25:59.761Z,15.70
2018-06-20T09:26:59.786Z,15.40
2018-06-20T09:27:59.813Z,16.80
2018-06-20T09:28:59.841Z,15.00
2018-06-20T09:29:59.886Z,15.90
2018-06-20T09:30:59.895Z,14.90
2018-06-20T09:31:59.926Z,15.40
2018-06-20T09:32:59.949Z,14.40
2018-06-20T09:33:59.977Z,16.40
2018-06-20T09:35:00.008Z,15.50
2018-06-20T09:36:00.032Z,15.50
2018-06-20T09:37:00.062Z,14.40
2018-06-20T09:38:00.087Z,16.70
2018-06-20T09:39:00.114Z,16.00
2018-06-20T09:40:00.145Z,16.60
2018-06-20T09:41:00.169Z,16.00
2018-06-20T09:42:00.196Z,15.50
2018-06-20T09:43:00.223Z,16.60
2018-06-20T09:44:00.254Z,17.10
2018-06-20T09:45:00.279Z,15.10
2018-06-20T09:46:00.306Z,16.00
2018-06-20T09:47:00.336Z,15.80
2018-06-20T09:48:00.362Z,16.20
2018-06-20T09:49:00.394Z,15.20
2018-06-20T09:50:00.475Z,16.90
2018-06-20T09:51:00.448Z,16.70
2018-06-20T09:52:00.477Z,16.50
2018-06-20T09:53:00.617Z,16.00
2018-06-20T09:54:00.532Z,17.10
2018-06-20T09:55:00.559Z,15.90
2018-06-20T09:56:00.588Z,16.70
2018-06-20T09:57:00.617Z,15.10
2018-06-20T09:58:00.721Z,16.50
2018-06-20T09:59:00.672Z,15.00
2018-06-20T10:00:00.697Z,16.10
2018-06-20T10:01:00.979Z,14.50
2018-06-20T10:02:00.754Z,15.60
2018-06-20T10:03:00.785Z,14.20
2018-06-20T10:04:00.809Z,14.10
2018-06-20T10:05:00.841Z,12.70
2018-06-20T10:06:00.866Z,15.00
2018-06-20T10:07:00.895Z,13.60
2018-06-20T10:08:00.921Z,13.50
2018-06-20T10:09:00.953Z,13.90
2018-06-20T10:10:00.980Z,13.30
2018-06-20T10:11:01.009Z,14.30
2018-06-20T10:12:01.037Z,13.20
2018-06-20T10:13:01.065Z,14.30
2018-06-20T10:14:01.096Z,13.60
2018-06-20T10:15:01.121Z,14.40
2018-06-20T10:16:01.152Z,13.60
2018-06-20T10:17:01.176Z,12.90
2018-06-20T10:18:01.204Z,14.10
2018-06-20T10:19:01.231Z,13.90
2018-06-20T10:20:01.260Z,12.50
2018-06-20T10:21:01.344Z,13.70
2018-06-20T10:22:01.317Z,13.50
2018-06-20T10:23:01.343Z,12.70
2018-06-20T10:24:01.374Z,12.80
2018-06-20T10:25:01.399Z,13.20
2018-06-20T10:26:01.430Z,14.40
2018-06-20T10:27:01.455Z,14.80
2018-06-20T10:28:01.486Z,13.10
2018-06-20T10:29:01.517Z,11.90
2018-06-20T10:30:01.539Z,12.40
2018-06-20T10:31:01.569Z,12.50
2018-06-20T10:32:01.597Z,12.30
2018-06-20T10:33:01.628Z,11.60
2018-06-20T10:34:01.653Z,12.50
2018-06-20T10:35:01.681Z,11.60
2018-06-20T10:36:01.712Z,12.10
2018-06-20T10:37:01.746Z,11.80
2018-06-20T10:38:01.769Z,12.90
2018-06-20T10:39:01.805Z,12.00
2018-06-20T10:40:01.840Z,12.40
2018-06-20T10:41:01.855Z,12.00
2018-06-20T10:42:01.881Z,11.40
2018-06-20T10:43:01.909Z,13.70
2018-06-20T10:44:01.938Z,12.60
2018-06-20T10:45:01.967Z,12.50
2018-06-20T10:46:02.030Z,11.20
2018-06-20T10:47:02.022Z,11.30
2018-06-20T10:48:02.054Z,11.10
2018-06-20T10:49:02.081Z,11.60
2018-06-20T10:50:02.111Z,11.10
2018-06-20T10:51:02.135Z,11.00
2018-06-20T10:52:02.168Z,11.10
2018-06-20T10:53:02.194Z,10.50
2018-06-20T10:54:02.221Z,12.10
2018-06-20T10:55:02.253Z,11.80
2018-06-20T10:56:02.280Z,11.40
2018-06-20T10:57:02.310Z,10.80
2018-06-20T10:58:02.336Z,12.40
2018-06-20T10:59:02.367Z,12.10
2018-06-20T11:00:02.595Z,10.80
2018-06-20T11:01:02.425Z,10.10
2018-06-20T11:02:02.452Z,10.70
2018-06-20T11:03:02.483Z,11.80
2018-06-20T11:04:02.513Z,10.70
2018-06-20T11:05:02.543Z,11.80
2018-06-20T11:06:02.568Z,11.50
2018-06-20T11:07:02.622Z,12.90
2018-06-20T11:08:02.625Z,12.90
2018-06-20T11:09:02.655Z,12.70
2018-06-20T11:10:02.685Z,13.50
2018-06-20T11:11:02.710Z,13.00
2018-06-20T11:12:02.740Z,13.30
2018-06-20T11:13:02.767Z,11.70
2018-06-20T11:14:02.795Z,12.70
2018-06-20T11:15:02.827Z,10.80
2018-06-20T11:16:02.857Z,11.60
2018-06-20T11:17:02.882Z,10.60
2018-06-20T11:18:02.910Z,11.50
2018-06-20T11:19:02.944Z,10.80
2018-06-20T11:20:02.972Z,10.70
2018-06-20T11:21:03.002Z,11.20
2018-06-20T11:22:03.031Z,10.80
2018-06-20T11:23:03.054Z,10.30
2018-06-20T11:24:03.087Z,11.00
2018-06-20T11:25:03.111Z,10.40
2018-06-20T11:26:03.144Z,9.50
2018-06-20T11:27:03.172Z,9.40
2018-06-20T11:28:03.201Z,9.70
2018-06-20T11:29:03.229Z,10.00
2018-06-20T11:30:03.258Z,10.30
2018-06-20T11:31:03.329Z,12.60
2018-06-20T11:32:03.316Z,10.70
2018-06-20T11:33:03.343Z,9.80
2018-06-20T11:34:03.371Z,9.50
2018-06-20T11:35:03.400Z,9.60
2018-06-20T11:36:03.428Z,10.20
2018-06-20T11:37:03.458Z,9.50
2018-06-20T11:38:03.484Z,8.90
2018-06-20T11:39:03.513Z,8.90
2018-06-20T11:40:03.545Z,9.10
2018-06-20T11:41:03.571Z,9.00
2018-06-20T11:42:03.605Z,8.40
2018-06-20T11:43:03.629Z,9.20
2018-06-20T11:44:03.662Z,9.90
2018-06-20T11:45:03.690Z,8.30
2018-06-20T11:46:03.713Z,9.00
2018-06-20T11:47:03.746Z,9.20
2018-06-20T11:48:03.775Z,8.20
2018-06-20T11:49:03.801Z,8.00
2018-06-20T11:50:03.831Z,9.60
2018-06-20T11:51:03.859Z,7.50
2018-06-20T11:52:03.888Z,8.10
2018-06-20T11:53:03.917Z,7.40
2018-06-20T11:54:03.946Z,7.90
2018-06-20T11:55:03.972Z,8.10
2018-06-20T11:56:04.004Z,8.50
2018-06-20T11:57:04.029Z,8.10
2018-06-20T11:58:04.101Z,7.90
2018-06-20T11:59:04.089Z,8.80
2018-06-20T12:00:04.119Z,7.70
2018-06-20T12:01:04.147Z,6.90
2018-06-20T12:02:04.173Z,7.40
2018-06-20T12:03:04.207Z,7.90
2018-06-20T12:04:04.233Z,11.00
2018-06-20T12:05:04.262Z,8.20
2018-06-20T12:06:04.288Z,9.00
2018-06-20T12:07:04.321Z,8.40
2018-06-20T12:08:04.347Z,7.50
2018-06-20T12:09:04.380Z,8.10
2018-06-20T12:10:04.406Z,6.90
2018-06-20T12:11:04.435Z,8.70
2018-06-20T12:12:04.461Z,7.60
2018-06-20T12:13:04.493Z,7.40
2018-06-20T12:14:04.772Z,11.60
2018-06-20T12:15:04.550Z,8.30
2018-06-20T12:16:04.580Z,7.30
2018-06-20T12:17:04.607Z,8.30
2018-06-20T12:18:04.634Z,11.50
2018-06-20T12:19:04.664Z,7.70
2018-06-20T12:20:04.695Z,8.20
2018-06-20T12:21:04.720Z,18.40
2018-06-20T12:22:04.784Z,12.50
2018-06-20T12:23:04.777Z,8.90
2018-06-20T12:24:04.810Z,18.00
2018-06-20T12:25:04.848Z,9.10
2018-06-20T12:26:04.867Z,5.70
2018-06-20T12:27:04.895Z,9.30
2018-06-20T12:28:04.926Z,7.00
2018-06-20T12:29:04.953Z,6.80
2018-06-20T12:30:04.980Z,6.40
2018-06-20T12:31:05.012Z,8.60
2018-06-20T12:32:05.038Z,11.50
2018-06-20T12:33:05.069Z,9.10
2018-06-20T12:34:05.096Z,17.20
2018-06-20T12:35:05.123Z,16.90
2018-06-20T12:36:05.151Z,9.60
2018-06-20T12:37:05.180Z,7.50
2018-06-20T12:38:05.208Z,5.80
2018-06-20T12:39:05.240Z,6.40
2018-06-20T12:40:05.269Z,5.80
2018-06-20T12:41:05.298Z,6.30
2018-06-20T12:42:05.352Z,7.10
2018-06-20T12:43:05.351Z,6.00
2018-06-20T12:44:05.385Z,7.70
2018-06-20T12:45:05.410Z,6.10
2018-06-20T12:46:05.439Z,5.90
2018-06-20T12:47:05.559Z,5.50
2018-06-20T12:48:05.499Z,6.40
2018-06-20T12:49:05.528Z,5.10
2018-06-20T12:50:05.552Z,5.60
2018-06-20T12:51:05.584Z,7.80
2018-06-20T12:52:05.609Z,5.80
2018-06-20T12:53:05.641Z,7.50
2018-06-20T12:54:05.666Z,8.80
2018-06-20T12:55:05.698Z,9.60
2018-06-20T12:56:05.726Z,5.10